createdAt,value
2022-09-13T00:00:54.752Z,5.57
2022-09-13T00:03:33.637Z,5.53
2022-09-13T00:06:08.808Z,6.07
2022-09-13T00:08:37.194Z,6.82
2022-09-13T00:11:05.814Z,6.88
2022-09-13T00:13:35.503Z,7.18
2022-09-13T00:16:05.453Z,6.72
2022-09-13T00:18:34.819Z,6.10
2022-09-13T00:21:07.935Z,5.38
2022-09-13T00:23:36.351Z,5.80
2022-09-13T00:26:06.515Z,5.32
2022-09-13T00:28:36.166Z,5.18
2022-09-13T00:31:05.974Z,5.13
2022-09-13T00:33:34.518Z,5.97
2022-09-13T00:36:05.401Z,4.78
2022-09-13T00:38:33.983Z,4.85
2022-09-13T00:41:02.062Z,5.88
2022-09-13T00:43:45.521Z,5.85
2022-09-13T00:46:27.998Z,5.32
2022-09-13T00:48:58.841Z,6.97
2022-09-13T00:51:27.726Z,6.15
2022-09-13T00:53:57.354Z,7.05
2022-09-13T00:56:28.579Z,7.30
2022-09-13T00:59:01.472Z,6.95
2022-09-13T01:01:33.401Z,7.28
2022-09-13T01:04:02.620Z,6.35
2022-09-13T01:06:33.272Z,6.63
2022-09-13T01:09:04.274Z,5.88
2022-09-13T01:11:37.889Z,6.30
2022-09-13T01:14:08.407Z,7.68
2022-09-13T01:16:36.813Z,7.97
2022-09-13T01:19:05.373Z,6.93
2022-09-13T01:22:03.927Z,5.70
2022-09-13T01:25:09.964Z,5.13
2022-09-13T01:28:00.108Z,4.45
2022-09-13T01:30:32.445Z,4.60
2022-09-13T01:33:17.067Z,4.40
2022-09-13T01:35:56.475Z,4.30
2022-09-13T01:38:38.096Z,5.15
2022-09-13T01:41:13.713Z,5.75
2022-09-13T01:43:50.335Z,6.85
2022-09-13T01:46:25.015Z,6.00
2022-09-13T01:48:57.206Z,5.45
2022-09-13T01:51:30.477Z,5.45
2022-09-13T01:54:14.893Z,4.75
2022-09-13T01:56:50.081Z,5.10
2022-09-13T01:59:24.223Z,4.95
2022-09-13T02:01:58.097Z,5.18
2022-09-13T02:04:28.958Z,5.80
2022-09-13T02:07:02.422Z,5.35
2022-09-13T02:09:33.208Z,4.93
2022-09-13T02:12:06.543Z,4.68
2022-09-13T02:14:37.317Z,4.38
2022-09-13T02:17:08.850Z,4.70
2022-09-13T02:19:39.494Z,8.48
2022-09-13T02:22:09.476Z,9.65
2022-09-13T02:24:40.566Z,8.60
2022-09-13T02:27:11.718Z,9.85
2022-09-13T02:29:42.045Z,8.73
2022-09-13T02:32:15.852Z,8.48
2022-09-13T02:34:47.443Z,7.60
2022-09-13T02:37:16.089Z,6.53
2022-09-13T02:39:49.246Z,5.05
2022-09-13T02:42:20.059Z,5.95
2022-09-13T02:44:49.963Z,5.25
2022-09-13T02:47:30.437Z,5.57
2022-09-13T02:50:09.377Z,5.45
2022-09-13T02:52:46.373Z,5.70
2022-09-13T02:55:19.362Z,6.28
2022-09-13T02:57:55.541Z,5.57
2022-09-13T03:00:23.993Z,6.47
2022-09-13T03:02:54.763Z,7.43
2022-09-13T03:05:23.210Z,6.63
2022-09-13T03:07:51.965Z,5.85
2022-09-13T03:10:20.745Z,5.90
2022-09-13T03:13:02.567Z,6.18
2022-09-13T03:15:41.927Z,6.13
2022-09-13T03:18:20.615Z,12.55
2022-09-13T03:20:59.569Z,10.45
2022-09-13T03:23:42.285Z,9.80
2022-09-13T03:26:22.629Z,8.35
2022-09-13T03:28:56.737Z,9.80
2022-09-13T03:31:30.309Z,12.75
2022-09-13T03:34:03.673Z,13.85
2022-09-13T03:36:36.541Z,13.30
2022-09-13T03:39:14.833Z,13.70
2022-09-13T03:41:46.132Z,15.73
2022-09-13T03:44:15.840Z,14.93
2022-09-13T03:46:46.009Z,15.63
2022-09-13T03:49:17.113Z,14.82
2022-09-13T03:51:47.293Z,14.93
2022-09-13T03:54:19.501Z,14.90
2022-09-13T03:57:11.884Z,14.02
2022-09-13T03:59:43.457Z,11.30
2022-09-13T04:02:12.650Z,11.63
2022-09-13T04:04:43.389Z,10.07
2022-09-13T04:07:13.697Z,9.60
2022-09-13T04:09:42.026Z,9.63
2022-09-13T04:12:11.146Z,9.57
2022-09-13T04:14:39.482Z,10.43
2022-09-13T04:17:07.771Z,10.02
2022-09-13T04:19:36.001Z,10.85
2022-09-13T04:22:06.168Z,9.60
2022-09-13T04:24:34.411Z,9.60
2022-09-13T04:27:02.751Z,11.75
2022-09-13T04:29:32.015Z,11.02
2022-09-13T04:32:00.533Z,13.80
2022-09-13T04:34:28.807Z,11.30
2022-09-13T04:36:57.290Z,10.35
2022-09-13T04:39:26.867Z,9.98
2022-09-13T04:41:55.358Z,11.40
2022-09-13T04:44:24.694Z,11.20
2022-09-13T04:46:53.165Z,12.00
2022-09-13T04:49:22.105Z,14.43
2022-09-13T04:51:50.975Z,14.45
2022-09-13T04:54:19.076Z,13.90
2022-09-13T04:56:49.033Z,12.93
2022-09-13T04:59:17.681Z,13.93
2022-09-13T05:01:46.060Z,13.82
2022-09-13T05:04:14.687Z,13.45
2022-09-13T05:06:43.134Z,12.35
2022-09-13T05:09:14.211Z,13.18
2022-09-13T05:11:43.161Z,12.73
2022-09-13T05:14:13.356Z,14.20
2022-09-13T05:16:41.954Z,12.02
2022-09-13T05:19:10.724Z,12.65
2022-09-13T05:21:39.608Z,12.38
2022-09-13T05:24:07.836Z,12.38
2022-09-13T05:26:36.514Z,12.80
2022-09-13T05:29:05.456Z,11.82
2022-09-13T05:31:37.009Z,11.20
2022-09-13T05:34:07.749Z,10.35
2022-09-13T05:36:36.255Z,10.18
2022-09-13T05:39:29.523Z,9.90
2022-09-13T05:41:54.160Z,8.32
2022-09-13T05:44:23.110Z,9.82
2022-09-13T05:46:52.685Z,11.18
2022-09-13T05:49:21.060Z,9.35
2022-09-13T05:51:49.410Z,8.48
2022-09-13T05:54:17.839Z,9.00
2022-09-13T05:56:46.286Z,9.80
2022-09-13T05:59:15.279Z,8.70
2022-09-13T06:01:43.902Z,8.55
2022-09-13T06:04:14.654Z,7.95
2022-09-13T06:06:43.282Z,8.63
2022-09-13T06:09:12.080Z,8.55
2022-09-13T06:11:40.808Z,8.27
2022-09-13T06:14:08.937Z,8.63
2022-09-13T06:16:37.483Z,7.07
2022-09-13T06:19:05.725Z,7.90
2022-09-13T06:21:35.358Z,8.10
2022-09-13T06:24:04.053Z,7.25
2022-09-13T06:26:32.948Z,7.97
2022-09-13T06:29:01.197Z,6.95
2022-09-13T06:31:29.874Z,7.05
2022-09-13T06:34:00.028Z,6.85
2022-09-13T06:36:28.268Z,6.63
2022-09-13T06:39:00.708Z,7.30
2022-09-13T06:41:29.665Z,7.63
2022-09-13T06:43:58.987Z,6.43
2022-09-13T06:46:28.131Z,6.43
2022-09-13T06:48:57.885Z,6.07
2022-09-13T06:51:27.083Z,5.97
2022-09-13T06:53:56.799Z,6.65
2022-09-13T06:56:28.772Z,6.73
2022-09-13T06:58:58.278Z,6.78
2022-09-13T07:01:28.606Z,6.32
2022-09-13T07:04:00.222Z,6.30
2022-09-13T07:06:30.380Z,6.28
2022-09-13T07:08:59.781Z,7.03
2022-09-13T07:11:32.023Z,5.97
2022-09-13T07:14:01.941Z,6.28
2022-09-13T07:16:31.457Z,5.63
2022-09-13T07:19:00.811Z,5.80
2022-09-13T07:21:30.274Z,6.15
2022-09-13T07:23:58.428Z,6.15
2022-09-13T07:26:27.536Z,5.60
2022-09-13T07:28:59.922Z,5.88
2022-09-13T07:31:29.583Z,6.72
2022-09-13T07:33:59.761Z,5.27
2022-09-13T07:36:29.908Z,5.38
2022-09-13T07:38:59.233Z,5.47
2022-09-13T07:41:29.335Z,5.10
2022-09-13T07:44:00.769Z,4.88
2022-09-13T07:46:32.489Z,5.38
2022-09-13T07:49:02.104Z,4.85
2022-09-13T07:51:31.610Z,5.30
2022-09-13T07:54:01.373Z,5.30
2022-09-13T07:56:31.233Z,5.78
2022-09-13T07:59:02.258Z,5.28
2022-09-13T08:01:34.484Z,5.47
2022-09-13T08:04:05.163Z,5.00
2022-09-13T08:06:34.792Z,6.53
2022-09-13T08:09:03.395Z,5.03
2022-09-13T08:11:33.268Z,5.22
2022-09-13T08:14:03.575Z,4.60
2022-09-13T08:16:32.343Z,4.20
2022-09-13T08:19:03.266Z,4.18
2022-09-13T08:21:34.746Z,4.00
2022-09-13T08:24:03.778Z,3.95
2022-09-13T08:26:33.803Z,3.78
2022-09-13T08:29:05.132Z,3.78
2022-09-13T08:31:34.537Z,4.03
2022-09-13T08:34:03.104Z,3.33
2022-09-13T08:36:31.690Z,3.33
2022-09-13T08:39:02.045Z,3.83
2022-09-13T08:41:57.435Z,3.53
2022-09-13T08:44:30.242Z,4.10
2022-09-13T08:47:08.240Z,4.07
2022-09-13T08:49:41.563Z,3.60
2022-09-13T08:52:21.967Z,3.33
2022-09-13T08:57:24.073Z,2.95
2022-09-13T08:59:59.324Z,2.92
2022-09-13T09:02:58.032Z,3.40
2022-09-13T09:05:28.905Z,2.90
2022-09-13T09:08:00.915Z,2.95
2022-09-13T09:10:31.261Z,3.08
2022-09-13T09:13:02.651Z,2.35
2022-09-13T09:15:36.134Z,2.45
2022-09-13T09:18:07.308Z,2.33
2022-09-13T09:20:39.542Z,2.33
2022-09-13T09:23:19.073Z,2.10
2022-09-13T09:25:52.168Z,2.40
2022-09-13T09:28:21.022Z,2.72
2022-09-13T09:31:00.146Z,2.00
2022-09-13T09:33:43.053Z,2.53
2022-09-13T09:36:17.411Z,2.30
2022-09-13T09:38:46.232Z,2.83
2022-09-13T09:41:19.815Z,2.70
2022-09-13T09:43:52.922Z,2.65
2022-09-13T09:46:27.298Z,2.60
2022-09-13T09:48:58.326Z,2.00
2022-09-13T09:51:27.272Z,2.45
2022-09-13T09:54:02.133Z,2.40
2022-09-13T09:56:32.380Z,2.20
2022-09-13T09:59:00.687Z,1.85
2022-09-13T10:01:32.452Z,1.88
2022-09-13T10:04:08.783Z,1.88
2022-09-13T10:06:39.049Z,1.60
2022-09-13T10:11:45.353Z,2.20
2022-09-13T10:14:33.241Z,1.95
2022-09-13T10:17:11.444Z,1.92
2022-09-13T10:19:40.218Z,2.00
2022-09-13T10:22:13.097Z,2.10
2022-09-13T10:24:41.837Z,2.03
2022-09-13T10:27:23.451Z,2.13
2022-09-13T10:29:54.758Z,1.95
2022-09-13T10:32:25.773Z,2.00
2022-09-13T10:34:54.337Z,2.10
2022-09-13T10:37:24.228Z,2.47
2022-09-13T10:39:59.013Z,2.45
2022-09-13T10:42:28.177Z,2.38
2022-09-13T10:44:58.059Z,2.75
2022-09-13T10:47:31.268Z,2.25
2022-09-13T10:50:00.506Z,2.33
2022-09-13T10:52:34.717Z,2.25
2022-09-13T10:55:25.503Z,2.00
2022-09-13T10:57:55.136Z,2.03
2022-09-13T11:00:25.757Z,1.80
2022-09-13T11:03:04.557Z,2.30
2022-09-13T11:05:37.360Z,2.08
2022-09-13T11:08:14.539Z,1.70
2022-09-13T11:10:51.190Z,2.10
2022-09-13T11:13:26.401Z,1.85
2022-09-13T11:15:59.522Z,2.10
2022-09-13T11:18:56.412Z,1.92
2022-09-13T11:21:46.636Z,2.03
2022-09-13T11:24:24.914Z,1.98
2022-09-13T11:26:59.516Z,1.80
2022-09-13T11:29:37.020Z,1.52
2022-09-13T11:32:14.653Z,1.50
2022-09-13T11:34:51.379Z,1.33
2022-09-13T11:37:30.388Z,1.75
2022-09-13T11:40:09.291Z,1.40
2022-09-13T11:42:45.174Z,1.30
2022-09-13T11:45:24.354Z,1.70
2022-09-13T11:48:16.229Z,1.80
2022-09-13T11:50:53.032Z,1.50
2022-09-13T11:53:38.523Z,1.75
2022-09-13T11:56:08.677Z,1.60
2022-09-13T11:58:41.116Z,1.90
2022-09-13T12:01:12.569Z,1.85
2022-09-13T12:03:45.094Z,1.77
2022-09-13T12:06:20.508Z,1.95
2022-09-13T12:08:51.640Z,1.50
2022-09-13T12:11:23.294Z,1.58
2022-09-13T12:13:53.343Z,1.67
2022-09-13T12:16:25.174Z,1.90
2022-09-13T12:18:56.971Z,1.80
2022-09-13T12:21:29.290Z,2.25
2022-09-13T12:24:02.834Z,1.63
2022-09-13T12:26:33.439Z,1.83
2022-09-13T12:29:05.591Z,1.50
2022-09-13T12:31:34.075Z,1.73
2022-09-13T12:34:06.959Z,1.90
2022-09-13T12:36:46.904Z,1.83
2022-09-13T12:39:35.679Z,1.77
2022-09-13T12:42:27.508Z,1.58
2022-09-13T12:45:11.643Z,1.70
2022-09-13T12:48:12.597Z,1.75
2022-09-13T12:53:28.287Z,1.92
2022-09-13T12:56:04.999Z,1.40
2022-09-13T12:58:53.516Z,1.75
2022-09-13T13:01:23.042Z,3.10
2022-09-13T13:03:54.660Z,2.17
2022-09-13T13:06:28.574Z,2.08
2022-09-13T13:08:59.840Z,2.08
2022-09-13T13:11:31.485Z,1.70
2022-09-13T13:14:02.429Z,1.88
2022-09-13T13:19:00.512Z,1.83
2022-09-13T13:21:32.361Z,1.77
2022-09-13T13:24:37.980Z,1.95
2022-09-13T13:27:46.246Z,1.83
2022-09-13T13:30:40.535Z,1.70
2022-09-13T13:33:16.597Z,1.95
2022-09-13T13:35:45.057Z,2.10
2022-09-13T13:38:18.361Z,1.65
2022-09-13T13:40:50.672Z,1.52
2022-09-13T13:43:33.840Z,1.80
2022-09-13T13:46:28.372Z,1.90
2022-09-13T13:48:56.953Z,2.00
2022-09-13T13:51:27.779Z,2.13
2022-09-13T13:53:59.769Z,2.40
2022-09-13T13:56:35.219Z,2.20
2022-09-13T13:59:10.772Z,2.08
2022-09-13T14:01:45.088Z,2.03
2022-09-13T14:04:54.885Z,1.90
2022-09-13T14:07:34.855Z,2.13
2022-09-13T14:10:07.051Z,2.05
2022-09-13T14:12:47.440Z,2.03
2022-09-13T14:15:28.345Z,2.38
2022-09-13T14:18:32.294Z,2.20
2022-09-13T14:21:02.011Z,2.50
2022-09-13T14:23:31.285Z,2.38
2022-09-13T14:26:01.093Z,2.03
2022-09-13T14:28:29.794Z,2.00
2022-09-13T14:31:00.255Z,2.00
2022-09-13T14:33:32.187Z,2.13
2022-09-13T14:36:03.242Z,2.20
2022-09-13T14:38:35.457Z,2.83
2022-09-13T14:41:15.252Z,2.60
2022-09-13T14:43:44.072Z,2.08
2022-09-13T14:46:18.929Z,2.30
2022-09-13T14:48:51.802Z,2.05
2022-09-13T14:51:23.170Z,1.80
2022-09-13T14:56:29.081Z,1.98
2022-09-13T14:58:59.710Z,1.75
2022-09-13T15:01:31.670Z,1.80
2022-09-13T15:04:01.502Z,1.67
2022-09-13T15:06:31.617Z,2.05
2022-09-13T15:09:02.404Z,2.13
2022-09-13T15:11:34.055Z,1.67
2022-09-13T15:14:04.539Z,1.88
2022-09-13T15:16:34.453Z,2.05
2022-09-13T15:19:32.053Z,2.20
2022-09-13T15:22:12.801Z,2.50
2022-09-13T15:24:45.037Z,2.20
2022-09-13T15:27:26.343Z,2.22
2022-09-13T15:29:56.679Z,1.70
2022-09-13T15:32:34.830Z,2.03
2022-09-13T15:35:03.971Z,2.20
2022-09-13T15:37:35.930Z,1.63
2022-09-13T15:40:14.815Z,1.95
2022-09-13T15:42:47.250Z,2.25
2022-09-13T15:45:15.677Z,2.38
2022-09-13T15:47:48.012Z,1.80
2022-09-13T15:50:25.040Z,1.80
2022-09-13T15:52:53.253Z,2.15
2022-09-13T15:55:21.756Z,2.10
2022-09-13T15:57:50.191Z,2.47
2022-09-13T16:00:21.549Z,2.50
2022-09-13T16:02:51.862Z,2.13
2022-09-13T16:05:20.578Z,2.40
2022-09-13T16:07:49.072Z,2.40
2022-09-13T16:10:20.732Z,2.45
2022-09-13T16:12:49.202Z,2.25
2022-09-13T16:15:18.033Z,1.92
2022-09-13T16:17:46.500Z,2.33
2022-09-13T16:20:17.110Z,1.80
2022-09-13T16:22:45.382Z,2.15
2022-09-13T16:25:14.362Z,2.10
2022-09-13T16:27:43.105Z,2.05
2022-09-13T16:30:13.278Z,2.45
2022-09-13T16:32:42.488Z,2.00
2022-09-13T16:35:11.327Z,2.00
2022-09-13T16:37:41.222Z,1.70
2022-09-13T16:40:10.754Z,2.28
2022-09-13T16:42:39.491Z,2.00
2022-09-13T16:45:09.070Z,2.25
2022-09-13T16:47:37.810Z,2.00
2022-09-13T16:50:07.700Z,2.05
2022-09-13T16:52:36.366Z,2.25
2022-09-13T16:55:08.447Z,2.53
2022-09-13T16:57:37.419Z,2.50
2022-09-13T17:00:09.177Z,1.90
2022-09-13T17:02:37.877Z,2.05
2022-09-13T17:05:08.874Z,2.53
2022-09-13T17:07:38.098Z,2.38
2022-09-13T17:10:09.885Z,2.40
2022-09-13T17:12:38.300Z,2.20
2022-09-13T17:15:08.096Z,2.83
2022-09-13T17:17:36.764Z,2.47
2022-09-13T17:20:09.411Z,2.90
2022-09-13T17:22:38.355Z,2.65
2022-09-13T17:25:09.502Z,2.97
2022-09-13T17:27:38.756Z,2.70
2022-09-13T17:30:09.322Z,2.88
2022-09-13T17:32:37.820Z,3.35
2022-09-13T17:35:07.788Z,2.72
2022-09-13T17:37:36.900Z,3.30
2022-09-13T17:40:06.359Z,3.10
2022-09-13T17:42:36.591Z,2.95
2022-09-13T17:45:06.383Z,2.90
2022-09-13T17:47:35.359Z,3.53
2022-09-13T17:50:06.312Z,2.90
2022-09-13T17:52:35.426Z,2.90
2022-09-13T17:55:03.738Z,3.60
2022-09-13T17:57:32.278Z,2.97
2022-09-13T18:00:02.948Z,2.78
2022-09-13T18:02:31.344Z,3.03
2022-09-13T18:05:04.597Z,3.30
2022-09-13T18:07:34.218Z,3.40
2022-09-13T18:10:03.063Z,3.42
2022-09-13T18:12:32.168Z,3.67
2022-09-13T18:15:03.375Z,3.40
2022-09-13T18:17:31.879Z,3.78
2022-09-13T18:20:00.288Z,3.85
2022-09-13T18:22:28.770Z,4.15
2022-09-13T18:24:57.266Z,3.80
2022-09-13T18:27:26.479Z,4.22
2022-09-13T18:29:55.138Z,3.33
2022-09-13T18:32:25.250Z,4.05
2022-09-13T18:34:54.166Z,4.18
2022-09-13T18:37:23.643Z,3.90
2022-09-13T18:39:53.221Z,4.35
2022-09-13T18:42:22.675Z,5.00
2022-09-13T18:44:54.026Z,4.03
2022-09-13T18:47:23.011Z,3.90
2022-09-13T18:49:53.230Z,4.90
2022-09-13T18:52:22.490Z,4.28
2022-09-13T18:54:52.023Z,4.35
2022-09-13T18:57:21.701Z,5.00
2022-09-13T18:59:50.867Z,4.05
2022-09-13T19:02:21.206Z,4.18
2022-09-13T19:04:51.179Z,4.82
2022-09-13T19:07:23.571Z,4.35
2022-09-13T19:09:53.530Z,4.43
2022-09-13T19:12:23.823Z,4.80
2022-09-13T19:14:55.545Z,5.63
2022-09-13T19:17:24.662Z,5.55
2022-09-13T19:19:55.178Z,4.82
2022-09-13T19:22:27.786Z,5.75
2022-09-13T19:24:57.161Z,5.72
2022-09-13T19:27:29.724Z,5.97
2022-09-13T19:29:59.336Z,5.57
2022-09-13T19:32:28.206Z,5.97
2022-09-13T19:34:57.946Z,5.63
2022-09-13T19:37:29.023Z,5.70
2022-09-13T19:39:59.656Z,4.93
2022-09-13T19:42:29.983Z,5.75
2022-09-13T19:45:00.322Z,5.47
2022-09-13T19:48:13.077Z,6.33
2022-09-13T19:50:19.694Z,4.63
2022-09-13T19:52:50.389Z,5.85
2022-09-13T19:55:21.512Z,5.72
2022-09-13T20:00:20.551Z,4.32
2022-09-13T20:02:50.100Z,5.10
2022-09-13T20:05:19.836Z,4.68
2022-09-13T20:07:49.609Z,4.38
2022-09-13T20:10:18.242Z,4.45
2022-09-13T20:12:51.561Z,4.90
2022-09-13T20:15:24.586Z,4.40
2022-09-13T20:17:55.342Z,4.35
2022-09-13T20:20:26.561Z,4.40
2022-09-13T20:22:56.921Z,3.97
2022-09-13T20:25:25.514Z,4.18
2022-09-13T20:27:54.991Z,4.10
2022-09-13T20:30:24.631Z,4.18
2022-09-13T20:32:54.674Z,3.47
2022-09-13T20:35:23.634Z,4.30
2022-09-13T20:37:55.524Z,4.40
2022-09-13T20:40:26.728Z,4.22
2022-09-13T20:42:57.142Z,3.90
2022-09-13T20:45:26.358Z,4.32
2022-09-13T20:47:55.346Z,4.20
2022-09-13T20:50:24.773Z,4.07
2022-09-13T20:52:53.374Z,4.07
2022-09-13T20:55:21.534Z,4.60
2022-09-13T20:57:51.738Z,4.25
2022-09-13T21:00:19.956Z,4.00
2022-09-13T21:02:48.689Z,3.55
2022-09-13T21:05:18.820Z,4.00
2022-09-13T21:08:04.205Z,4.57
2022-09-13T21:10:32.673Z,3.88
2022-09-13T21:13:04.016Z,3.72
2022-09-13T21:15:32.242Z,4.07
2022-09-13T21:18:00.650Z,3.80
2022-09-13T21:20:29.258Z,3.42
2022-09-13T21:22:57.445Z,3.40
2022-09-13T21:25:25.920Z,3.50
2022-09-13T21:27:54.251Z,3.63
2022-09-13T21:30:24.040Z,3.38
2022-09-13T21:32:52.486Z,3.20
2022-09-13T21:35:20.812Z,3.90
2022-09-13T21:37:48.935Z,3.17
2022-09-13T21:40:17.653Z,3.55
2022-09-13T21:42:45.928Z,3.45
2022-09-13T21:45:14.258Z,3.28
2022-09-13T21:47:44.146Z,3.10
2022-09-13T21:50:12.465Z,3.50
2022-09-13T21:52:41.574Z,3.35
2022-09-13T21:55:10.438Z,3.25
2022-09-13T21:57:38.733Z,3.30
2022-09-13T22:00:09.314Z,3.17
2022-09-13T22:02:37.958Z,3.55
2022-09-13T22:05:08.291Z,3.40
2022-09-13T22:07:36.579Z,3.47
2022-09-13T22:10:05.367Z,3.55
2022-09-13T22:12:33.648Z,2.83
2022-09-13T22:15:01.811Z,2.70
2022-09-13T22:17:30.773Z,3.20
2022-09-13T22:19:58.866Z,3.08
2022-09-13T22:22:29.372Z,2.97
2022-09-13T22:24:57.665Z,3.40
2022-09-13T22:27:25.832Z,3.22
2022-09-13T22:29:53.912Z,3.00
2022-09-13T22:32:23.608Z,3.28
2022-09-13T22:34:53.438Z,2.80
2022-09-13T22:37:21.574Z,3.10
2022-09-13T22:39:51.463Z,2.75
2022-09-13T22:42:19.692Z,3.10
2022-09-13T22:44:48.292Z,3.20
2022-09-13T22:47:16.785Z,3.42
2022-09-13T22:49:45.010Z,3.35
2022-09-13T22:52:13.198Z,2.83
2022-09-13T22:54:41.910Z,3.03
2022-09-13T22:57:11.397Z,3.00
2022-09-13T22:59:39.648Z,2.97
2022-09-13T23:02:07.864Z,3.28
2022-09-13T23:04:36.009Z,3.05
2022-09-13T23:07:04.116Z,2.80
2022-09-13T23:09:32.421Z,3.20
2022-09-13T23:12:00.636Z,2.83
2022-09-13T23:14:30.042Z,2.90
2022-09-13T23:16:58.511Z,2.70
2022-09-13T23:19:28.242Z,2.83
2022-09-13T23:21:56.341Z,2.58
2022-09-13T23:24:25.222Z,2.47
2022-09-13T23:26:56.019Z,3.10
2022-09-13T23:29:24.435Z,2.67
2022-09-13T23:31:54.963Z,2.65
2022-09-13T23:34:23.646Z,2.60
2022-09-13T23:36:52.558Z,2.58
2022-09-13T23:39:21.837Z,2.92
2022-09-13T23:41:51.205Z,2.80
2022-09-13T23:44:19.396Z,2.80
2022-09-13T23:46:47.820Z,3.00
2022-09-13T23:49:17.362Z,2.58
2022-09-13T23:51:45.718Z,2.53
2022-09-13T23:54:15.241Z,3.05
2022-09-13T23:56:44.024Z,2.33
2022-09-13T23:59:13.615Z,3.00
